sensor_id;sensor_type;location;lat;lon;timestamp;P1;durP1;ratioP1;P2;durP2;ratioP2
38318;SDS011;24121;53.536;10.224;2023-03-03T00:01:34;25.85;;;15.10;;
38318;SDS011;24121;53.536;10.224;2023-03-03T00:03:59;26.67;;;15.90;;
38318;SDS011;24121;53.536;10.224;2023-03-03T00:06:24;24.43;;;16.20;;
38318;SDS011;24121;53.536;10.224;2023-03-03T00:08:50;29.05;;;16.00;;
38318;SDS011;24121;53.536;10.224;2023-03-03T00:11:16;26.63;;;15.80;;
38318;SDS011;24121;53.536;10.224;2023-03-03T00:16:40;28.58;;;15.52;;
38318;SDS011;24121;53.536;10.224;2023-03-03T00:18:58;27.77;;;15.40;;
38318;SDS011;24121;53.536;10.224;2023-03-03T00:21:41;27.80;;;15.80;;
38318;SDS011;24121;53.536;10.224;2023-03-03T00:26:38;26.13;;;16.50;;
38318;SDS011;24121;53.536;10.224;2023-03-03T00:29:23;27.30;;;16.63;;
38318;SDS011;24121;53.536;10.224;2023-03-03T00:31:50;30.48;;;17.70;;
38318;SDS011;24121;53.536;10.224;2023-03-03T00:36:40;31.83;;;17.67;;
38318;SDS011;24121;53.536;10.224;2023-03-03T00:39:48;30.10;;;17.08;;
38318;SDS011;24121;53.536;10.224;2023-03-03T00:41:54;34.47;;;19.25;;
38318;SDS011;24121;53.536;10.224;2023-03-03T00:46:48;29.50;;;17.55;;
38318;SDS011;24121;53.536;10.224;2023-03-03T00:49:16;33.42;;;19.35;;
38318;SDS011;24121;53.536;10.224;2023-03-03T00:51:44;36.83;;;19.17;;
38318;SDS011;24121;53.536;10.224;2023-03-03T00:54:09;35.87;;;19.30;;
38318;SDS011;24121;53.536;10.224;2023-03-03T00:56:34;37.25;;;18.98;;
38318;SDS011;24121;53.536;10.224;2023-03-03T00:58:59;52.40;;;24.15;;
38318;SDS011;24121;53.536;10.224;2023-03-03T01:01:24;47.20;;;23.25;;
38318;SDS011;24121;53.536;10.224;2023-03-03T01:03:50;45.67;;;23.23;;
38318;SDS011;24121;53.536;10.224;2023-03-03T01:06:15;48.50;;;23.23;;
38318;SDS011;24121;53.536;10.224;2023-03-03T01:08:40;51.58;;;25.40;;
38318;SDS011;24121;53.536;10.224;2023-03-03T01:11:07;44.45;;;22.65;;
38318;SDS011;24121;53.536;10.224;2023-03-03T01:13:33;42.28;;;22.80;;
38318;SDS011;24121;53.536;10.224;2023-03-03T01:15:59;82.50;;;29.48;;
38318;SDS011;24121;53.536;10.224;2023-03-03T01:18:25;53.10;;;25.98;;
38318;SDS011;24121;53.536;10.224;2023-03-03T01:20:50;59.03;;;26.55;;
38318;SDS011;24121;53.536;10.224;2023-03-03T01:23:16;108.77;;;32.20;;
38318;SDS011;24121;53.536;10.224;2023-03-03T01:25:41;80.38;;;29.90;;
38318;SDS011;24121;53.536;10.224;2023-03-03T01:28:06;121.13;;;31.43;;
38318;SDS011;24121;53.536;10.224;2023-03-03T01:30:32;253.90;;;39.77;;
38318;SDS011;24121;53.536;10.224;2023-03-03T01:32:57;182.43;;;39.20;;
38318;SDS011;24121;53.536;10.224;2023-03-03T01:35:22;209.88;;;39.45;;
38318;SDS011;24121;53.536;10.224;2023-03-03T01:37:48;91.18;;;30.48;;
38318;SDS011;24121;53.536;10.224;2023-03-03T01:40:20;129.90;;;37.33;;
38318;SDS011;24121;53.536;10.224;2023-03-03T01:42:45;153.00;;;33.15;;
38318;SDS011;24121;53.536;10.224;2023-03-03T01:45:15;249.55;;;40.63;;
38318;SDS011;24121;53.536;10.224;2023-03-03T01:47:41;199.65;;;38.58;;
38318;SDS011;24121;53.536;10.224;2023-03-03T01:50:10;254.10;;;42.67;;
38318;SDS011;24121;53.536;10.224;2023-03-03T01:52:40;262.58;;;40.78;;
38318;SDS011;24121;53.536;10.224;2023-03-03T01:55:28;283.80;;;44.90;;
38318;SDS011;24121;53.536;10.224;2023-03-03T01:57:54;75.85;;;29.85;;
38318;SDS011;24121;53.536;10.224;2023-03-03T02:00:20;259.35;;;48.83;;
38318;SDS011;24121;53.536;10.224;2023-03-03T02:02:45;74.00;;;29.67;;
38318;SDS011;24121;53.536;10.224;2023-03-03T02:05:11;119.43;;;31.52;;
38318;SDS011;24121;53.536;10.224;2023-03-03T02:07:37;165.93;;;35.17;;
38318;SDS011;24121;53.536;10.224;2023-03-03T02:10:07;203.38;;;35.88;;
38318;SDS011;24121;53.536;10.224;2023-03-03T02:12:38;127.10;;;30.05;;
38318;SDS011;24121;53.536;10.224;2023-03-03T02:15:14;139.35;;;32.28;;
38318;SDS011;24121;53.536;10.224;2023-03-03T02:17:39;116.20;;;29.38;;
38318;SDS011;24121;53.536;10.224;2023-03-03T02:22:52;279.80;;;36.95;;
38318;SDS011;24121;53.536;10.224;2023-03-03T02:25:21;213.93;;;34.88;;
38318;SDS011;24121;53.536;10.224;2023-03-03T02:27:50;218.82;;;37.60;;
38318;SDS011;24121;53.536;10.224;2023-03-03T02:30:21;200.45;;;38.17;;
38318;SDS011;24121;53.536;10.224;2023-03-03T02:37:49;229.57;;;37.38;;
38318;SDS011;24121;53.536;10.224;2023-03-03T02:40:15;61.65;;;25.50;;
38318;SDS011;24121;53.536;10.224;2023-03-03T02:42:43;231.15;;;40.45;;
38318;SDS011;24121;53.536;10.224;2023-03-03T02:45:09;146.95;;;30.67;;
38318;SDS011;24121;53.536;10.224;2023-03-03T02:47:34;144.10;;;31.20;;
38318;SDS011;24121;53.536;10.224;2023-03-03T02:49:59;182.27;;;38.43;;
38318;SDS011;24121;53.536;10.224;2023-03-03T02:52:24;162.33;;;32.93;;
38318;SDS011;24121;53.536;10.224;2023-03-03T02:54:50;96.85;;;28.23;;
38318;SDS011;24121;53.536;10.224;2023-03-03T02:57:15;326.95;;;42.20;;
38318;SDS011;24121;53.536;10.224;2023-03-03T02:59:40;245.90;;;37.03;;
38318;SDS011;24121;53.536;10.224;2023-03-03T03:02:05;125.18;;;31.75;;
38318;SDS011;24121;53.536;10.224;2023-03-03T03:04:31;278.50;;;35.90;;
38318;SDS011;24121;53.536;10.224;2023-03-03T03:06:56;131.57;;;33.57;;
38318;SDS011;24121;53.536;10.224;2023-03-03T03:09:22;181.02;;;36.25;;
38318;SDS011;24121;53.536;10.224;2023-03-03T03:11:48;318.92;;;39.97;;
38318;SDS011;24121;53.536;10.224;2023-03-03T03:14:13;216.88;;;35.08;;
38318;SDS011;24121;53.536;10.224;2023-03-03T03:16:39;234.15;;;34.88;;
38318;SDS011;24121;53.536;10.224;2023-03-03T03:19:05;99.93;;;24.95;;
38318;SDS011;24121;53.536;10.224;2023-03-03T03:21:30;230.60;;;33.83;;
38318;SDS011;24121;53.536;10.224;2023-03-03T03:23:56;176.18;;;34.10;;
38318;SDS011;24121;53.536;10.224;2023-03-03T03:26:21;160.55;;;33.67;;
38318;SDS011;24121;53.536;10.224;2023-03-03T03:28:46;139.93;;;29.52;;
38318;SDS011;24121;53.536;10.224;2023-03-03T03:31:12;213.50;;;36.38;;
38318;SDS011;24121;53.536;10.224;2023-03-03T03:33:37;135.52;;;31.23;;
38318;SDS011;24121;53.536;10.224;2023-03-03T03:36:03;130.75;;;30.85;;
38318;SDS011;24121;53.536;10.224;2023-03-03T03:38:28;161.18;;;32.65;;
38318;SDS011;24121;53.536;10.224;2023-03-03T03:40:54;89.13;;;29.73;;
38318;SDS011;24121;53.536;10.224;2023-03-03T03:43:19;62.78;;;27.08;;
38318;SDS011;24121;53.536;10.224;2023-03-03T03:45:44;70.70;;;25.35;;
38318;SDS011;24121;53.536;10.224;2023-03-03T03:48:10;56.78;;;21.13;;
38318;SDS011;24121;53.536;10.224;2023-03-03T03:50:35;110.03;;;26.48;;
38318;SDS011;24121;53.536;10.224;2023-03-03T03:53:00;110.47;;;29.70;;
38318;SDS011;24121;53.536;10.224;2023-03-03T03:55:26;93.20;;;25.92;;
38318;SDS011;24121;53.536;10.224;2023-03-03T03:57:51;96.50;;;25.27;;
38318;SDS011;24121;53.536;10.224;2023-03-03T04:00:16;116.47;;;25.38;;
38318;SDS011;24121;53.536;10.224;2023-03-03T04:02:41;157.95;;;31.13;;
38318;SDS011;24121;53.536;10.224;2023-03-03T04:05:06;110.37;;;26.63;;
38318;SDS011;24121;53.536;10.224;2023-03-03T04:07:32;84.50;;;24.70;;
38318;SDS011;24121;53.536;10.224;2023-03-03T04:09:57;82.90;;;24.05;;
38318;SDS011;24121;53.536;10.224;2023-03-03T04:12:22;67.07;;;23.87;;
38318;SDS011;24121;53.536;10.224;2023-03-03T04:14:47;105.10;;;28.90;;
38318;SDS011;24121;53.536;10.224;2023-03-03T04:17:16;59.33;;;24.13;;
38318;SDS011;24121;53.536;10.224;2023-03-03T04:19:41;78.22;;;28.90;;
38318;SDS011;24121;53.536;10.224;2023-03-03T04:22:07;76.80;;;27.03;;
38318;SDS011;24121;53.536;10.224;2023-03-03T04:24:32;123.63;;;30.25;;
38318;SDS011;24121;53.536;10.224;2023-03-03T04:26:57;110.93;;;27.98;;
38318;SDS011;24121;53.536;10.224;2023-03-03T04:29:22;116.83;;;26.83;;
38318;SDS011;24121;53.536;10.224;2023-03-03T04:31:47;137.50;;;28.17;;
38318;SDS011;24121;53.536;10.224;2023-03-03T04:34:12;79.27;;;25.50;;
38318;SDS011;24121;53.536;10.224;2023-03-03T04:36:37;90.33;;;28.10;;
38318;SDS011;24121;53.536;10.224;2023-03-03T04:39:03;64.18;;;25.13;;
38318;SDS011;24121;53.536;10.224;2023-03-03T04:41:28;52.97;;;23.60;;
38318;SDS011;24121;53.536;10.224;2023-03-03T04:43:53;48.55;;;23.45;;
38318;SDS011;24121;53.536;10.224;2023-03-03T04:46:18;102.93;;;27.90;;
38318;SDS011;24121;53.536;10.224;2023-03-03T04:48:43;93.50;;;27.60;;
38318;SDS011;24121;53.536;10.224;2023-03-03T04:51:08;62.80;;;22.48;;
38318;SDS011;24121;53.536;10.224;2023-03-03T04:53:34;108.23;;;28.03;;
38318;SDS011;24121;53.536;10.224;2023-03-03T04:56:00;55.50;;;22.50;;
38318;SDS011;24121;53.536;10.224;2023-03-03T04:58:26;76.03;;;23.02;;
38318;SDS011;24121;53.536;10.224;2023-03-03T05:00:54;96.38;;;24.77;;
38318;SDS011;24121;53.536;10.224;2023-03-03T05:03:20;75.82;;;27.15;;
38318;SDS011;24121;53.536;10.224;2023-03-03T05:05:46;56.58;;;23.88;;
38318;SDS011;24121;53.536;10.224;2023-03-03T05:08:11;72.03;;;24.17;;
38318;SDS011;24121;53.536;10.224;2023-03-03T05:10:37;67.40;;;23.95;;
38318;SDS011;24121;53.536;10.224;2023-03-03T05:13:02;126.22;;;31.98;;
38318;SDS011;24121;53.536;10.224;2023-03-03T05:15:27;66.95;;;23.67;;
38318;SDS011;24121;53.536;10.224;2023-03-03T05:17:53;172.13;;;29.83;;
38318;SDS011;24121;53.536;10.224;2023-03-03T05:20:20;93.10;;;25.92;;
38318;SDS011;24121;53.536;10.224;2023-03-03T05:22:45;166.37;;;31.33;;
38318;SDS011;24121;53.536;10.224;2023-03-03T05:25:10;92.78;;;27.33;;
38318;SDS011;24121;53.536;10.224;2023-03-03T05:27:36;56.63;;;25.25;;
38318;SDS011;24121;53.536;10.224;2023-03-03T05:30:01;44.95;;;22.98;;
38318;SDS011;24121;53.536;10.224;2023-03-03T05:32:27;49.40;;;22.02;;
38318;SDS011;24121;53.536;10.224;2023-03-03T05:34:52;64.90;;;22.03;;
38318;SDS011;24121;53.536;10.224;2023-03-03T05:37:18;106.80;;;27.75;;
38318;SDS011;24121;53.536;10.224;2023-03-03T05:39:43;90.77;;;25.13;;
38318;SDS011;24121;53.536;10.224;2023-03-03T05:42:09;121.90;;;24.70;;
38318;SDS011;24121;53.536;10.224;2023-03-03T05:44:35;91.20;;;26.27;;
38318;SDS011;24121;53.536;10.224;2023-03-03T05:47:00;52.13;;;22.37;;
38318;SDS011;24121;53.536;10.224;2023-03-03T05:49:25;41.23;;;22.37;;
38318;SDS011;24121;53.536;10.224;2023-03-03T05:51:50;41.80;;;21.50;;
38318;SDS011;24121;53.536;10.224;2023-03-03T05:54:15;82.40;;;22.92;;
38318;SDS011;24121;53.536;10.224;2023-03-03T05:56:41;43.03;;;22.00;;
38318;SDS011;24121;53.536;10.224;2023-03-03T05:59:06;68.30;;;25.73;;
38318;SDS011;24121;53.536;10.224;2023-03-03T06:01:31;65.60;;;23.37;;
38318;SDS011;24121;53.536;10.224;2023-03-03T06:03:57;122.20;;;25.13;;
38318;SDS011;24121;53.536;10.224;2023-03-03T06:06:22;41.70;;;21.02;;
38318;SDS011;24121;53.536;10.224;2023-03-03T06:08:47;68.35;;;24.17;;
38318;SDS011;24121;53.536;10.224;2023-03-03T06:11:12;68.18;;;25.30;;
38318;SDS011;24121;53.536;10.224;2023-03-03T06:13:37;44.65;;;20.55;;
38318;SDS011;24121;53.536;10.224;2023-03-03T06:16:03;93.70;;;25.20;;
38318;SDS011;24121;53.536;10.224;2023-03-03T06:18:28;56.05;;;24.33;;
38318;SDS011;24121;53.536;10.224;2023-03-03T06:20:53;54.90;;;21.80;;
38318;SDS011;24121;53.536;10.224;2023-03-03T06:23:19;40.40;;;18.98;;
38318;SDS011;24121;53.536;10.224;2023-03-03T06:25:44;46.75;;;22.77;;
38318;SDS011;24121;53.536;10.224;2023-03-03T06:28:09;67.90;;;22.30;;
38318;SDS011;24121;53.536;10.224;2023-03-03T06:30:34;93.07;;;23.77;;
38318;SDS011;24121;53.536;10.224;2023-03-03T06:33:00;166.25;;;28.13;;
38318;SDS011;24121;53.536;10.224;2023-03-03T06:35:25;36.33;;;19.37;;
38318;SDS011;24121;53.536;10.224;2023-03-03T06:37:51;89.25;;;25.65;;
38318;SDS011;24121;53.536;10.224;2023-03-03T06:40:16;55.08;;;21.33;;
38318;SDS011;24121;53.536;10.224;2023-03-03T06:42:41;48.90;;;22.33;;
38318;SDS011;24121;53.536;10.224;2023-03-03T06:45:07;91.93;;;25.13;;
38318;SDS011;24121;53.536;10.224;2023-03-03T06:47:32;115.13;;;27.33;;
38318;SDS011;24121;53.536;10.224;2023-03-03T06:49:57;42.58;;;23.73;;
38318;SDS011;24121;53.536;10.224;2023-03-03T06:52:24;73.97;;;24.43;;
38318;SDS011;24121;53.536;10.224;2023-03-03T06:54:49;75.25;;;26.90;;
38318;SDS011;24121;53.536;10.224;2023-03-03T06:57:27;77.70;;;26.20;;
38318;SDS011;24121;53.536;10.224;2023-03-03T06:59:54;47.70;;;22.98;;
38318;SDS011;24121;53.536;10.224;2023-03-03T07:02:20;59.17;;;24.50;;
38318;SDS011;24121;53.536;10.224;2023-03-03T07:04:46;54.78;;;27.10;;
38318;SDS011;24121;53.536;10.224;2023-03-03T07:09:39;100.10;;;29.20;;
38318;SDS011;24121;53.536;10.224;2023-03-03T07:12:12;80.00;;;28.17;;
38318;SDS011;24121;53.536;10.224;2023-03-03T07:14:41;56.28;;;26.85;;
38318;SDS011;24121;53.536;10.224;2023-03-03T07:17:09;60.15;;;26.25;;
38318;SDS011;24121;53.536;10.224;2023-03-03T07:19:35;145.65;;;27.83;;
38318;SDS011;24121;53.536;10.224;2023-03-03T07:22:23;54.55;;;24.88;;
38318;SDS011;24121;53.536;10.224;2023-03-03T07:24:49;44.92;;;21.65;;
38318;SDS011;24121;53.536;10.224;2023-03-03T07:29:44;58.78;;;25.38;;
38318;SDS011;24121;53.536;10.224;2023-03-03T07:34:43;42.00;;;21.08;;
38318;SDS011;24121;53.536;10.224;2023-03-03T07:37:34;47.85;;;23.08;;
38318;SDS011;24121;53.536;10.224;2023-03-03T07:39:56;51.85;;;22.45;;
38318;SDS011;24121;53.536;10.224;2023-03-03T07:42:25;40.75;;;20.80;;
38318;SDS011;24121;53.536;10.224;2023-03-03T07:44:52;50.13;;;22.10;;
38318;SDS011;24121;53.536;10.224;2023-03-03T07:47:19;43.40;;;21.88;;
38318;SDS011;24121;53.536;10.224;2023-03-03T07:49:45;39.83;;;18.92;;
38318;SDS011;24121;53.536;10.224;2023-03-03T07:54:55;42.53;;;21.25;;
38318;SDS011;24121;53.536;10.224;2023-03-03T07:57:28;47.03;;;21.63;;
38318;SDS011;24121;53.536;10.224;2023-03-03T08:00:01;36.03;;;19.17;;
38318;SDS011;24121;53.536;10.224;2023-03-03T08:02:37;32.85;;;16.95;;
38318;SDS011;24121;53.536;10.224;2023-03-03T08:05:17;31.20;;;16.75;;
38318;SDS011;24121;53.536;10.224;2023-03-03T08:07:44;37.40;;;19.15;;
38318;SDS011;24121;53.536;10.224;2023-03-03T08:10:30;33.90;;;19.08;;
38318;SDS011;24121;53.536;10.224;2023-03-03T08:12:58;36.70;;;18.92;;
38318;SDS011;24121;53.536;10.224;2023-03-03T08:15:32;33.53;;;18.88;;
38318;SDS011;24121;53.536;10.224;2023-03-03T08:18:00;32.60;;;18.10;;
38318;SDS011;24121;53.536;10.224;2023-03-03T08:20:31;31.33;;;19.15;;
38318;SDS011;24121;53.536;10.224;2023-03-03T08:23:00;38.25;;;18.02;;
38318;SDS011;24121;53.536;10.224;2023-03-03T08:25:25;35.50;;;17.43;;
38318;SDS011;24121;53.536;10.224;2023-03-03T08:27:50;28.17;;;16.85;;
38318;SDS011;24121;53.536;10.224;2023-03-03T08:30:15;31.93;;;18.07;;
38318;SDS011;24121;53.536;10.224;2023-03-03T08:32:41;35.72;;;18.73;;
38318;SDS011;24121;53.536;10.224;2023-03-03T08:35:06;33.40;;;17.55;;
38318;SDS011;24121;53.536;10.224;2023-03-03T08:37:31;32.72;;;17.90;;
38318;SDS011;24121;53.536;10.224;2023-03-03T08:39:56;34.67;;;19.98;;
38318;SDS011;24121;53.536;10.224;2023-03-03T08:42:21;33.83;;;19.67;;
38318;SDS011;24121;53.536;10.224;2023-03-03T08:44:46;44.20;;;21.30;;
38318;SDS011;24121;53.536;10.224;2023-03-03T08:47:12;31.17;;;17.83;;
38318;SDS011;24121;53.536;10.224;2023-03-03T08:49:37;29.23;;;17.70;;
38318;SDS011;24121;53.536;10.224;2023-03-03T08:52:02;34.20;;;17.93;;
38318;SDS011;24121;53.536;10.224;2023-03-03T08:54:27;33.50;;;20.27;;
38318;SDS011;24121;53.536;10.224;2023-03-03T08:56:53;39.00;;;20.67;;
38318;SDS011;24121;53.536;10.224;2023-03-03T08:59:18;34.45;;;20.65;;
38318;SDS011;24121;53.536;10.224;2023-03-03T09:01:44;48.97;;;25.13;;
38318;SDS011;24121;53.536;10.224;2023-03-03T09:04:09;61.55;;;29.65;;
38318;SDS011;24121;53.536;10.224;2023-03-03T09:06:34;66.47;;;31.50;;
38318;SDS011;24121;53.536;10.224;2023-03-03T09:09:00;66.53;;;31.05;;
38318;SDS011;24121;53.536;10.224;2023-03-03T09:11:26;56.88;;;28.02;;
38318;SDS011;24121;53.536;10.224;2023-03-03T09:13:58;61.03;;;28.67;;
38318;SDS011;24121;53.536;10.224;2023-03-03T09:16:25;56.30;;;28.42;;
38318;SDS011;24121;53.536;10.224;2023-03-03T09:18:51;59.17;;;29.05;;
38318;SDS011;24121;53.536;10.224;2023-03-03T09:23:41;73.57;;;33.50;;
38318;SDS011;24121;53.536;10.224;2023-03-03T09:28:35;62.97;;;33.05;;
38318;SDS011;24121;53.536;10.224;2023-03-03T09:31:02;70.32;;;32.67;;
38318;SDS011;24121;53.536;10.224;2023-03-03T09:33:30;80.30;;;34.17;;
38318;SDS011;24121;53.536;10.224;2023-03-03T09:36:23;70.57;;;31.27;;
38318;SDS011;24121;53.536;10.224;2023-03-03T09:38:49;81.18;;;35.55;;
38318;SDS011;24121;53.536;10.224;2023-03-03T09:43:56;80.82;;;35.13;;
38318;SDS011;24121;53.536;10.224;2023-03-03T09:49:04;72.13;;;34.38;;
38318;SDS011;24121;53.536;10.224;2023-03-03T09:51:40;58.95;;;28.83;;
38318;SDS011;24121;53.536;10.224;2023-03-03T09:54:10;69.45;;;33.22;;
38318;SDS011;24121;53.536;10.224;2023-03-03T09:56:46;70.38;;;34.78;;
38318;SDS011;24121;53.536;10.224;2023-03-03T09:59:24;62.35;;;30.63;;
38318;SDS011;24121;53.536;10.224;2023-03-03T10:01:58;66.43;;;33.83;;
38318;SDS011;24121;53.536;10.224;2023-03-03T10:04:40;74.30;;;33.90;;
38318;SDS011;24121;53.536;10.224;2023-03-03T10:14:32;48.05;;;26.20;;
38318;SDS011;24121;53.536;10.224;2023-03-03T10:19:39;47.22;;;24.88;;
38318;SDS011;24121;53.536;10.224;2023-03-03T10:22:16;55.78;;;27.63;;
38318;SDS011;24121;53.536;10.224;2023-03-03T10:24:51;52.58;;;27.70;;
38318;SDS011;24121;53.536;10.224;2023-03-03T10:27:27;50.42;;;25.08;;
38318;SDS011;24121;53.536;10.224;2023-03-03T10:35:17;49.22;;;26.55;;
38318;SDS011;24121;53.536;10.224;2023-03-03T10:37:49;53.17;;;26.70;;
38318;SDS011;24121;53.536;10.224;2023-03-03T10:43:00;72.15;;;34.15;;
38318;SDS011;24121;53.536;10.224;2023-03-03T10:45:39;69.55;;;33.85;;
38318;SDS011;24121;53.536;10.224;2023-03-03T10:53:33;81.72;;;38.90;;
38318;SDS011;24121;53.536;10.224;2023-03-03T11:01:29;76.43;;;39.55;;
38318;SDS011;24121;53.536;10.224;2023-03-03T11:06:57;63.20;;;33.60;;
38318;SDS011;24121;53.536;10.224;2023-03-03T11:14:36;30.83;;;16.73;;
38318;SDS011;24121;53.536;10.224;2023-03-03T11:22:20;52.72;;;27.80;;
38318;SDS011;24121;53.536;10.224;2023-03-03T11:32:45;43.80;;;25.67;;
38318;SDS011;24121;53.536;10.224;2023-03-03T11:35:28;48.03;;;24.73;;
38318;SDS011;24121;53.536;10.224;2023-03-03T11:38:14;45.40;;;26.08;;
38318;SDS011;24121;53.536;10.224;2023-03-03T11:40:50;47.28;;;25.52;;
38318;SDS011;24121;53.536;10.224;2023-03-03T11:45:41;49.97;;;26.83;;
38318;SDS011;24121;53.536;10.224;2023-03-03T11:48:19;42.42;;;24.77;;
38318;SDS011;24121;53.536;10.224;2023-03-03T11:50:59;43.78;;;25.50;;
38318;SDS011;24121;53.536;10.224;2023-03-03T11:58:38;36.78;;;22.08;;
38318;SDS011;24121;53.536;10.224;2023-03-03T12:01:16;40.75;;;23.85;;
38318;SDS011;24121;53.536;10.224;2023-03-03T12:03:48;41.00;;;23.60;;
38318;SDS011;24121;53.536;10.224;2023-03-03T12:09:26;35.83;;;22.23;;
38318;SDS011;24121;53.536;10.224;2023-03-03T12:14:33;34.15;;;22.48;;
38318;SDS011;24121;53.536;10.224;2023-03-03T12:17:02;33.33;;;21.33;;
38318;SDS011;24121;53.536;10.224;2023-03-03T12:22:33;32.15;;;20.45;;
38318;SDS011;24121;53.536;10.224;2023-03-03T12:25:13;30.33;;;19.52;;
38318;SDS011;24121;53.536;10.224;2023-03-03T12:30:20;19.60;;;14.75;;
38318;SDS011;24121;53.536;10.224;2023-03-03T12:35:37;23.05;;;15.18;;
38318;SDS011;24121;53.536;10.224;2023-03-03T12:40:54;20.88;;;13.95;;
38318;SDS011;24121;53.536;10.224;2023-03-03T12:43:29;20.42;;;14.77;;
38318;SDS011;24121;53.536;10.224;2023-03-03T12:48:24;20.40;;;13.80;;
38318;SDS011;24121;53.536;10.224;2023-03-03T12:50:56;19.23;;;13.40;;
38318;SDS011;24121;53.536;10.224;2023-03-03T12:55:59;18.88;;;11.40;;
38318;SDS011;24121;53.536;10.224;2023-03-03T12:58:41;20.75;;;11.43;;
38318;SDS011;24121;53.536;10.224;2023-03-03T13:11:34;14.47;;;8.23;;
38318;SDS011;24121;53.536;10.224;2023-03-03T13:14:03;14.77;;;7.97;;
38318;SDS011;24121;53.536;10.224;2023-03-03T13:16:36;14.32;;;8.13;;
38318;SDS011;24121;53.536;10.224;2023-03-03T13:21:34;13.32;;;7.82;;
38318;SDS011;24121;53.536;10.224;2023-03-03T13:24:12;14.27;;;8.40;;
38318;SDS011;24121;53.536;10.224;2023-03-03T13:26:40;15.50;;;7.28;;
38318;SDS011;24121;53.536;10.224;2023-03-03T13:32:00;15.13;;;5.72;;
38318;SDS011;24121;53.536;10.224;2023-03-03T13:36:54;10.87;;;4.80;;
38318;SDS011;24121;53.536;10.224;2023-03-03T13:39:22;6.75;;;4.18;;
38318;SDS011;24121;53.536;10.224;2023-03-03T13:41:53;11.05;;;5.13;;
38318;SDS011;24121;53.536;10.224;2023-03-03T13:44:24;8.85;;;4.38;;
38318;SDS011;24121;53.536;10.224;2023-03-03T13:46:57;8.63;;;4.57;;
38318;SDS011;24121;53.536;10.224;2023-03-03T13:49:30;8.05;;;4.05;;
38318;SDS011;24121;53.536;10.224;2023-03-03T13:52:11;7.65;;;3.92;;
38318;SDS011;24121;53.536;10.224;2023-03-03T14:02:52;6.32;;;2.60;;
38318;SDS011;24121;53.536;10.224;2023-03-03T14:07:56;5.72;;;3.42;;
38318;SDS011;24121;53.536;10.224;2023-03-03T14:15:23;4.43;;;2.17;;
38318;SDS011;24121;53.536;10.224;2023-03-03T14:20:28;5.10;;;3.05;;
38318;SDS011;24121;53.536;10.224;2023-03-03T14:22:55;5.60;;;3.25;;
38318;SDS011;24121;53.536;10.224;2023-03-03T14:25:22;6.20;;;3.10;;
38318;SDS011;24121;53.536;10.224;2023-03-03T14:30:46;3.47;;;2.30;;
38318;SDS011;24121;53.536;10.224;2023-03-03T14:33:14;5.85;;;2.20;;
38318;SDS011;24121;53.536;10.224;2023-03-03T14:35:47;6.32;;;1.60;;
38318;SDS011;24121;53.536;10.224;2023-03-03T14:38:14;4.28;;;1.85;;
38318;SDS011;24121;53.536;10.224;2023-03-03T14:40:40;6.65;;;2.28;;
38318;SDS011;24121;53.536;10.224;2023-03-03T14:43:25;4.57;;;1.87;;
38318;SDS011;24121;53.536;10.224;2023-03-03T14:45:51;3.50;;;1.80;;
38318;SDS011;24121;53.536;10.224;2023-03-03T14:48:19;4.65;;;1.77;;
38318;SDS011;24121;53.536;10.224;2023-03-03T14:50:51;4.38;;;1.65;;
38318;SDS011;24121;53.536;10.224;2023-03-03T14:55:43;3.47;;;1.17;;
38318;SDS011;24121;53.536;10.224;2023-03-03T15:00:49;3.00;;;1.20;;
38318;SDS011;24121;53.536;10.224;2023-03-03T15:03:21;1.73;;;1.08;;
38318;SDS011;24121;53.536;10.224;2023-03-03T15:05:48;3.55;;;1.13;;
38318;SDS011;24121;53.536;10.224;2023-03-03T15:08:14;4.53;;;1.40;;
38318;SDS011;24121;53.536;10.224;2023-03-03T15:10:40;4.50;;;1.10;;
38318;SDS011;24121;53.536;10.224;2023-03-03T15:31:02;3.20;;;1.17;;
38318;SDS011;24121;53.536;10.224;2023-03-03T15:36:03;6.05;;;1.30;;
38318;SDS011;24121;53.536;10.224;2023-03-03T15:38:33;4.90;;;1.40;;
38318;SDS011;24121;53.536;10.224;2023-03-03T15:43:39;6.23;;;1.63;;
38318;SDS011;24121;53.536;10.224;2023-03-03T15:48:53;7.70;;;1.52;;
38318;SDS011;24121;53.536;10.224;2023-03-03T15:56:17;6.88;;;1.90;;
38318;SDS011;24121;53.536;10.224;2023-03-03T16:01:39;9.82;;;2.13;;
38318;SDS011;24121;53.536;10.224;2023-03-03T16:04:05;9.70;;;1.90;;
38318;SDS011;24121;53.536;10.224;2023-03-03T16:09:18;6.50;;;1.90;;
38318;SDS011;24121;53.536;10.224;2023-03-03T16:11:49;7.85;;;2.25;;
38318;SDS011;24121;53.536;10.224;2023-03-03T16:17:04;8.73;;;3.13;;
38318;SDS011;24121;53.536;10.224;2023-03-03T16:22:10;14.02;;;2.03;;
38318;SDS011;24121;53.536;10.224;2023-03-03T16:24:55;6.22;;;1.52;;
38318;SDS011;24121;53.536;10.224;2023-03-03T16:30:02;14.07;;;3.15;;
38318;SDS011;24121;53.536;10.224;2023-03-03T16:32:47;10.98;;;2.92;;
38318;SDS011;24121;53.536;10.224;2023-03-03T16:35:24;12.05;;;3.15;;
38318;SDS011;24121;53.536;10.224;2023-03-03T16:38:04;12.35;;;3.83;;
38318;SDS011;24121;53.536;10.224;2023-03-03T16:40:44;12.90;;;3.60;;
38318;SDS011;24121;53.536;10.224;2023-03-03T16:43:17;14.95;;;3.28;;
38318;SDS011;24121;53.536;10.224;2023-03-03T16:45:44;10.45;;;3.05;;
38318;SDS011;24121;53.536;10.224;2023-03-03T16:58:44;11.32;;;3.30;;
38318;SDS011;24121;53.536;10.224;2023-03-03T17:01:18;10.40;;;2.92;;
38318;SDS011;24121;53.536;10.224;2023-03-03T17:06:18;12.48;;;3.50;;
38318;SDS011;24121;53.536;10.224;2023-03-03T17:16:26;13.43;;;2.53;;
38318;SDS011;24121;53.536;10.224;2023-03-03T17:19:05;11.05;;;2.40;;
38318;SDS011;24121;53.536;10.224;2023-03-03T17:24:05;15.63;;;3.38;;
38318;SDS011;24121;53.536;10.224;2023-03-03T17:26:42;10.77;;;3.10;;
38318;SDS011;24121;53.536;10.224;2023-03-03T17:29:17;12.00;;;2.47;;
38318;SDS011;24121;53.536;10.224;2023-03-03T17:34:45;8.70;;;2.80;;
38318;SDS011;24121;53.536;10.224;2023-03-03T17:37:12;14.43;;;2.78;;
38318;SDS011;24121;53.536;10.224;2023-03-03T18:17:59;16.10;;;3.10;;
38318;SDS011;24121;53.536;10.224;2023-03-03T18:22:51;17.60;;;4.33;;
38318;SDS011;24121;53.536;10.224;2023-03-03T18:25:17;22.38;;;3.75;;
38318;SDS011;24121;53.536;10.224;2023-03-03T18:27:44;18.50;;;4.40;;
38318;SDS011;24121;53.536;10.224;2023-03-03T18:37:53;21.95;;;4.35;;
38318;SDS011;24121;53.536;10.224;2023-03-03T18:40:25;13.68;;;4.35;;
38318;SDS011;24121;53.536;10.224;2023-03-03T18:42:52;15.55;;;3.42;;
38318;SDS011;24121;53.536;10.224;2023-03-03T18:53:34;16.23;;;3.97;;
38318;SDS011;24121;53.536;10.224;2023-03-03T19:00:46;20.45;;;4.20;;
38318;SDS011;24121;53.536;10.224;2023-03-03T19:05:50;16.77;;;4.57;;
38318;SDS011;24121;53.536;10.224;2023-03-03T19:08:26;16.88;;;4.00;;
38318;SDS011;24121;53.536;10.224;2023-03-03T19:16:05;19.95;;;4.13;;
38318;SDS011;24121;53.536;10.224;2023-03-03T19:18:34;19.45;;;4.47;;
38318;SDS011;24121;53.536;10.224;2023-03-03T19:21:06;24.30;;;5.25;;